Time;durP1;ratioP1;P1;durP2;ratioP2;P2;SDS_P1;SDS_P2;PMS_P1;PMS_P2;Temp;Humidity;BMP_temperature;BMP_pressure;BME280_temperature;BME280_humidity;BME280_pressure;Samples;Min_cycle;Max_cycle;Signal;HPM_P1;HPM_P2
2021/04/03 00:00:30;;;;;;;24.73;11.13;;;11.20;99.90;;;;;;5044315;27;20888;-69
2021/04/03 00:02:57;;;;;;;25.90;9.67;;;11.30;99.90;;;;;;5036706;27;20192;-69
2021/04/03 00:05:26;;;;;;;19.33;10.03;;;11.40;99.90;;;;;;5108398;27;20687;-70
2021/04/03 00:07:53;;;;;;;15.37;9.60;;;11.30;99.90;;;;;;5036462;27;20199;-69
2021/04/03 00:10:34;;;;;;;17.07;9.63;;;11.30;99.90;;;;;;5048677;27;20204;-69
2021/04/03 00:13:01;;;;;;;17.03;8.53;;;11.10;99.90;;;;;;5056370;27;20562;-69
2021/04/03 00:15:28;;;;;;;15.93;8.73;;;11.00;99.90;;;;;;5109179;27;20189;-68
2021/04/03 00:17:55;;;;;;;16.03;8.50;;;11.00;99.90;;;;;;5043762;27;20502;-69
2021/04/03 00:20:27;;;;;;;14.13;8.67;;;11.00;99.90;;;;;;5016754;27;20196;-69
2021/04/03 00:22:54;;;;;;;16.83;10.10;;;10.90;99.90;;;;;;5033614;27;20198;-68
2021/04/03 00:25:20;;;;;;;17.80;9.27;;;11.00;99.90;;;;;;5028462;27;20193;-69
2021/04/03 00:27:46;;;;;;;19.70;10.47;;;10.80;99.90;;;;;;5032830;27;20180;-69
2021/04/03 00:30:15;;;;;;;14.80;10.60;;;11.00;99.90;;;;;;5043409;27;20210;-69
2021/04/03 00:32:44;;;;;;;18.60;9.57;;;11.00;99.90;;;;;;5032710;27;20255;-69
2021/04/03 00:35:12;;;;;;;15.43;9.63;;;11.00;99.90;;;;;;5030044;27;21136;-69
2021/04/03 00:37:39;;;;;;;25.23;11.17;;;11.00;99.90;;;;;;5036069;27;20955;-70
2021/04/03 00:40:21;;;;;;;23.90;10.00;;;11.10;99.90;;;;;;5024117;27;20205;-70
2021/04/03 00:42:48;;;;;;;15.00;10.03;;;11.10;99.90;;;;;;5028474;27;20189;-70
2021/04/03 00:45:17;;;;;;;22.17;10.83;;;11.20;99.90;;;;;;5018036;27;20237;-70
2021/04/03 00:47:44;;;;;;;26.43;10.80;;;11.20;99.90;;;;;;5022404;27;20220;-71
2021/04/03 00:50:21;;;;;;;22.90;10.17;;;11.20;99.90;;;;;;5020057;27;20207;-69
2021/04/03 00:52:47;;;;;;;19.40;10.43;;;11.20;99.90;;;;;;5028634;27;20614;-67
2021/04/03 00:55:15;;;;;;;31.70;10.97;;;11.20;99.90;;;;;;5047897;27;20738;-68
2021/04/03 00:57:42;;;;;;;15.97;9.37;;;11.20;99.90;;;;;;5016551;28;20694;-68
2021/04/03 01:00:12;;;;;;;19.57;10.30;;;11.10;99.90;;;;;;5029261;27;20184;-68
2021/04/03 01:02:39;;;;;;;23.40;10.67;;;11.20;99.90;;;;;;5011006;28;20657;-67
2021/04/03 01:05:22;;;;;;;16.40;9.27;;;11.20;99.90;;;;;;5030945;27;20180;-68
2021/04/03 01:07:49;;;;;;;20.37;10.27;;;11.20;99.90;;;;;;5037001;27;20192;-68
2021/04/03 01:10:19;;;;;;;19.10;10.00;;;11.10;99.90;;;;;;5026761;27;20184;-68
2021/04/03 01:13:04;;;;;;;18.30;9.93;;;11.20;99.90;;;;;;5032315;28;20825;-68
2021/04/03 01:15:53;;;;;;;20.47;9.43;;;11.10;99.90;;;;;;5030459;27;20564;-68
2021/04/03 01:18:28;;;;;;;15.13;8.97;;;11.10;99.90;;;;;;5025717;27;20862;-67
2021/04/03 01:21:21;;;;;;;14.77;8.43;;;11.00;99.90;;;;;;5014927;27;20208;-67
2021/04/03 01:24:13;;;;;;;17.93;8.67;;;10.90;99.90;;;;;;5031367;27;20193;-68
2021/04/03 01:27:13;;;;;;;13.83;8.73;;;10.80;99.90;;;;;;5026516;27;20315;-68
2021/04/03 01:30:04;;;;;;;21.10;8.50;;;10.80;99.90;;;;;;5034442;27;20200;-68
2021/04/03 01:32:59;;;;;;;18.73;9.87;;;10.70;99.90;;;;;;5032538;27;20200;-67
2021/04/03 01:35:35;;;;;;;15.13;9.37;;;10.70;99.90;;;;;;5024013;27;20192;-68
2021/04/03 01:38:17;;;;;;;17.60;9.90;;;10.80;99.90;;;;;;5039214;27;20183;-68
2021/04/03 01:40:49;;;;;;;22.97;10.70;;;10.80;99.90;;;;;;5009605;28;20573;-68
2021/04/03 01:43:23;;;;;;;26.60;10.53;;;11.00;99.90;;;;;;5049581;27;20708;-68
2021/04/03 01:45:56;;;;;;;18.53;9.97;;;11.00;99.90;;;;;;5048685;27;20187;-70
2021/04/03 01:48:24;;;;;;;15.10;10.43;;;11.00;99.90;;;;;;5022587;27;20180;-70
2021/04/03 01:50:51;;;;;;;18.57;10.17;;;11.00;99.90;;;;;;5038487;27;20520;-70
2021/04/03 01:53:22;;;;;;;20.70;10.60;;;11.00;99.90;;;;;;5041736;27;20842;-70
2021/04/03 01:55:53;;;;;;;17.83;9.97;;;11.00;99.90;;;;;;5038244;27;20223;-70
2021/04/03 01:58:22;;;;;;;20.00;10.00;;;10.80;99.90;;;;;;5041774;27;20257;-70
2021/04/03 02:00:49;;;;;;;20.80;10.50;;;10.90;99.90;;;;;;5039104;27;20227;-70
2021/04/03 02:03:15;;;;;;;22.37;11.03;;;10.90;99.90;;;;;;5053785;27;20185;-70
2021/04/03 02:05:47;;;;;;;17.90;11.27;;;10.90;99.90;;;;;;5062060;27;20216;-70
2021/04/03 02:08:16;;;;;;;16.13;9.73;;;10.90;99.90;;;;;;5053452;27;20191;-70
2021/04/03 02:10:44;;;;;;;18.00;10.20;;;10.80;99.90;;;;;;5041561;27;20176;-70
2021/04/03 02:13:13;;;;;;;13.33;10.17;;;10.70;99.90;;;;;;5047308;27;20200;-70
2021/04/03 02:15:42;;;;;;;17.23;9.33;;;10.70;99.90;;;;;;5024754;27;20260;-70
2021/04/03 02:18:09;;;;;;;15.93;9.80;;;10.60;99.90;;;;;;5055256;27;20189;-70
2021/04/03 02:20:37;;;;;;;19.93;9.33;;;10.60;99.90;;;;;;5056922;27;20184;-70
2021/04/03 02:23:04;;;;;;;24.47;10.33;;;10.60;99.90;;;;;;5024573;27;20208;-70
2021/04/03 02:25:30;;;;;;;18.13;9.63;;;10.80;99.90;;;;;;5024211;27;20264;-70
2021/04/03 02:27:57;;;;;;;19.50;9.20;;;10.80;99.90;;;;;;5056053;27;20192;-70
2021/04/03 02:30:24;;;;;;;24.27;11.00;;;10.80;99.90;;;;;;5059992;27;20970;-71
2021/04/03 02:32:57;;;;;;;18.93;10.93;;;10.80;99.90;;;;;;5041803;27;20208;-71
2021/04/03 02:35:29;;;;;;;17.17;9.67;;;10.90;99.90;;;;;;5035079;27;20185;-70
2021/04/03 02:38:02;;;;;;;16.00;9.70;;;10.90;99.90;;;;;;5048267;27;20187;-70
2021/04/03 02:40:32;;;;;;;16.53;9.70;;;10.90;99.90;;;;;;5029874;27;20602;-70
2021/04/03 02:43:51;;;;;;;21.40;10.20;;;10.90;99.90;;;;;;5021352;28;20758;-70
2021/04/03 02:46:39;;;;;;;20.90;10.17;;;10.90;99.90;;;;;;5017628;28;20208;-70
2021/04/03 02:49:15;;;;;;;20.40;10.77;;;10.90;99.90;;;;;;5039135;27;20799;-70
2021/04/03 02:51:47;;;;;;;20.60;9.77;;;10.90;99.90;;;;;;5034994;27;20200;-69
2021/04/03 02:54:18;;;;;;;12.50;10.57;;;10.90;99.90;;;;;;5019549;27;20191;-69
2021/04/03 02:56:45;;;;;;;14.30;9.73;;;10.90;99.90;;;;;;5041621;27;20695;-68
2021/04/03 02:59:23;;;;;;;14.53;9.30;;;10.70;99.90;;;;;;5058929;27;20767;-69
2021/04/03 03:01:53;;;;;;;23.57;10.67;;;10.60;99.90;;;;;;5040365;28;20259;-69
2021/04/03 03:04:22;;;;;;;23.17;11.20;;;10.60;99.90;;;;;;5022116;28;20181;-69
2021/04/03 03:06:49;;;;;;;19.27;10.90;;;10.70;99.90;;;;;;5045656;28;20192;-69
2021/04/03 03:09:18;;;;;;;18.63;11.23;;;10.70;99.90;;;;;;5062304;28;20189;-69
2021/04/03 03:11:49;;;;;;;31.10;10.73;;;10.70;99.90;;;;;;5047813;28;20247;-69
2021/04/03 03:14:17;;;;;;;16.83;9.40;;;10.50;99.90;;;;;;5054720;28;20193;-71
2021/04/03 03:16:47;;;;;;;17.23;10.37;;;10.30;99.90;;;;;;5045951;28;20271;-67
2021/04/03 03:19:15;;;;;;;18.27;9.37;;;10.20;99.90;;;;;;5049738;28;20846;-71
2021/04/03 03:21:42;;;;;;;18.60;10.83;;;10.30;99.90;;;;;;5022162;28;20216;-71
2021/04/03 03:24:11;;;;;;;20.67;8.83;;;10.40;99.90;;;;;;5029700;28;20184;-71
2021/04/03 03:26:39;;;;;;;18.73;9.33;;;10.10;99.90;;;;;;5030442;27;20200;-70
2021/04/03 03:29:12;;;;;;;16.23;8.83;;;9.90;99.90;;;;;;5060649;28;20382;-70
2021/04/03 03:31:40;;;;;;;16.40;10.20;;;9.90;99.90;;;;;;5054215;28;20245;-71
2021/04/03 03:34:08;;;;;;;17.97;9.93;;;10.00;99.90;;;;;;5036021;27;20510;-70
2021/04/03 03:36:39;;;;;;;25.37;10.07;;;10.00;99.90;;;;;;5021721;28;20227;-70
2021/04/03 03:39:07;;;;;;;20.27;10.43;;;10.10;99.90;;;;;;5026180;28;20295;-70
2021/04/03 03:41:35;;;;;;;14.83;10.47;;;10.10;99.90;;;;;;5022224;28;20222;-70
2021/04/03 03:44:04;;;;;;;16.37;10.13;;;10.20;99.90;;;;;;5049292;27;21056;-70
2021/04/03 03:46:31;;;;;;;19.30;10.50;;;10.10;99.90;;;;;;5015630;28;20178;-70
2021/04/03 03:48:57;;;;;;;16.77;10.63;;;10.10;99.90;;;;;;5038883;28;20247;-70
2021/04/03 03:51:24;;;;;;;18.50;10.30;;;10.10;99.90;;;;;;5049114;28;20201;-70
2021/04/03 03:53:50;;;;;;;21.97;9.90;;;10.10;99.90;;;;;;5055050;28;20823;-69
2021/04/03 03:56:17;;;;;;;19.77;10.33;;;10.10;99.90;;;;;;5029855;27;20196;-69
2021/04/03 03:58:44;;;;;;;16.97;10.67;;;10.10;99.90;;;;;;5026151;27;20195;-70
2021/04/03 04:01:11;;;;;;;15.93;10.03;;;10.10;99.90;;;;;;5061577;27;20304;-70
2021/04/03 04:03:37;;;;;;;22.93;10.47;;;10.10;99.90;;;;;;5065587;27;20648;-71
2021/04/03 04:06:04;;;;;;;17.23;10.00;;;10.10;99.90;;;;;;5028190;28;20264;-70
2021/04/03 04:08:32;;;;;;;18.63;10.87;;;10.20;99.90;;;;;;5034358;27;20275;-70
2021/04/03 04:10:59;;;;;;;15.37;9.40;;;10.20;99.90;;;;;;5037182;27;20262;-69
2021/04/03 04:13:25;;;;;;;15.30;9.97;;;10.20;99.90;;;;;;5018939;28;20691;-68
2021/04/03 04:15:55;;;;;;;15.90;9.67;;;10.20;99.90;;;;;;5005253;28;20283;-69
2021/04/03 04:18:21;;;;;;;19.90;10.00;;;10.20;99.90;;;;;;5020406;28;20212;-68
2021/04/03 04:20:48;;;;;;;20.90;12.03;;;10.20;99.90;;;;;;5030784;28;20636;-68
2021/04/03 04:23:14;;;;;;;28.07;13.33;;;10.40;99.90;;;;;;5024100;28;20271;-69
2021/04/03 04:25:41;;;;;;;19.77;12.60;;;10.50;99.90;;;;;;5022085;27;20271;-68
2021/04/03 04:28:07;;;;;;;24.07;12.47;;;10.60;99.90;;;;;;5027145;27;20185;-69
2021/04/03 04:30:33;;;;;;;22.30;12.07;;;10.60;99.90;;;;;;5021578;27;20252;-70
2021/04/03 04:32:59;;;;;;;24.13;12.27;;;10.70;99.90;;;;;;5020452;28;20257;-68
2021/04/03 04:35:26;;;;;;;21.00;12.30;;;10.80;99.90;;;;;;5011806;28;20192;-67
2021/04/03 04:37:52;;;;;;;20.70;11.97;;;10.80;99.90;;;;;;5019217;28;20293;-70
2021/04/03 04:40:18;;;;;;;20.30;12.47;;;10.90;99.90;;;;;;5021561;28;20200;-69
2021/04/03 04:42:45;;;;;;;26.23;12.30;;;11.00;99.90;;;;;;5039586;27;20207;-70
2021/04/03 04:45:12;;;;;;;19.33;13.70;;;11.00;99.90;;;;;;5072724;27;20273;-69
2021/04/03 04:47:39;;;;;;;22.43;12.77;;;11.10;99.90;;;;;;5055548;27;20203;-69
2021/04/03 04:50:08;;;;;;;19.67;11.40;;;11.10;99.90;;;;;;5058192;27;20305;-69
2021/04/03 04:52:35;;;;;;;18.77;12.07;;;11.10;99.90;;;;;;5034837;27;20581;-70
2021/04/03 04:55:03;;;;;;;23.60;11.83;;;11.20;99.90;;;;;;5060098;27;20667;-68
2021/04/03 04:57:30;;;;;;;18.83;12.00;;;11.20;99.90;;;;;;5033060;27;20205;-69
2021/04/03 04:59:56;;;;;;;23.23;12.33;;;11.30;99.90;;;;;;5049301;27;20177;-68
2021/04/03 05:02:23;;;;;;;19.63;11.53;;;11.40;99.90;;;;;;5031572;27;20186;-70
2021/04/03 05:04:50;;;;;;;23.67;11.73;;;11.50;99.90;;;;;;5047208;27;20200;-69
2021/04/03 05:07:17;;;;;;;23.07;11.30;;;11.50;99.90;;;;;;5042853;27;20289;-69
2021/04/03 05:09:43;;;;;;;23.33;11.83;;;11.60;99.90;;;;;;5056921;27;20243;-69
2021/04/03 05:12:10;;;;;;;19.80;11.47;;;11.60;99.90;;;;;;5047056;27;20676;-68
2021/04/03 05:14:36;;;;;;;22.77;11.53;;;11.60;99.90;;;;;;5029353;27;20195;-69
2021/04/03 05:17:03;;;;;;;22.87;12.40;;;11.70;99.90;;;;;;5056173;27;20184;-68
2021/04/03 05:19:29;;;;;;;22.03;11.50;;;11.70;99.90;;;;;;5044609;27;20241;-70
2021/04/03 05:21:55;;;;;;;18.63;11.13;;;11.80;99.90;;;;;;5038573;27;20196;-68
2021/04/03 05:24:22;;;;;;;24.20;11.60;;;11.80;99.90;;;;;;5030008;27;20200;-68
2021/04/03 05:26:49;;;;;;;17.67;11.20;;;11.90;99.90;;;;;;5025679;27;20208;-67
2021/04/03 05:29:15;;;;;;;21.27;11.70;;;11.90;99.90;;;;;;5043047;27;20190;-70
2021/04/03 05:31:42;;;;;;;18.30;11.93;;;11.90;99.90;;;;;;5043068;27;20216;-69
2021/04/03 05:34:08;;;;;;;17.53;10.37;;;12.00;99.90;;;;;;5042782;27;20188;-70
2021/04/03 05:36:34;;;;;;;17.63;11.57;;;12.10;99.90;;;;;;5028026;27;20691;-70
2021/04/03 05:39:00;;;;;;;18.97;10.73;;;12.10;99.90;;;;;;5064378;27;20185;-69
2021/04/03 05:41:27;;;;;;;19.40;11.37;;;12.10;99.90;;;;;;5037497;27;20244;-68
2021/04/03 05:43:55;;;;;;;19.40;11.00;;;12.20;99.90;;;;;;5033690;27;20256;-67
2021/04/03 05:46:22;;;;;;;21.67;11.73;;;12.20;99.90;;;;;;5021562;27;20192;-68
2021/04/03 05:48:51;;;;;;;22.47;12.67;;;12.40;99.90;;;;;;5059561;27;20204;-69
2021/04/03 05:51:19;;;;;;;22.00;12.20;;;12.40;99.90;;;;;;5021681;27;20239;-69
2021/04/03 05:53:46;;;;;;;18.87;10.97;;;12.40;99.90;;;;;;5053535;27;20196;-67
2021/04/03 05:56:16;;;;;;;15.57;11.57;;;12.50;99.90;;;;;;5029012;27;20211;-67
2021/04/03 05:58:43;;;;;;;23.03;11.60;;;12.60;99.90;;;;;;5035484;27;20192;-67
2021/04/03 06:01:09;;;;;;;19.67;10.10;;;12.70;99.90;;;;;;5026969;27;20219;-68
2021/04/03 06:03:36;;;;;;;17.37;10.27;;;12.80;99.90;;;;;;5052613;27;20192;-67
2021/04/03 06:06:04;;;;;;;19.03;10.90;;;12.90;99.90;;;;;;5039392;27;20560;-70
2021/04/03 06:08:32;;;;;;;26.00;10.90;;;12.90;99.90;;;;;;5051126;27;20194;-69
2021/04/03 06:11:20;;;;;;;19.93;10.60;;;12.80;99.90;;;;;;5030115;27;20679;-70
2021/04/03 06:14:01;;;;;;;18.77;11.67;;;12.90;99.90;;;;;;5035860;27;20196;-69
2021/04/03 06:16:35;;;;;;;18.20;11.40;;;12.90;99.90;;;;;;5028666;27;21509;-67
2021/04/03 06:19:22;;;;;;;18.17;10.80;;;13.00;99.90;;;;;;5042532;27;20227;-67
2021/04/03 06:21:57;;;;;;;19.40;11.57;;;13.00;99.90;;;;;;5035280;27;20181;-69
2021/04/03 06:24:30;;;;;;;22.87;10.20;;;13.00;99.90;;;;;;5043208;27;20191;-70
2021/04/03 06:27:12;;;;;;;23.27;11.00;;;13.00;99.90;;;;;;5029083;28;20193;-69
2021/04/03 06:29:48;;;;;;;20.70;11.07;;;13.10;99.90;;;;;;5036077;27;20691;-69
2021/04/03 06:32:18;;;;;;;17.73;11.70;;;13.20;99.90;;;;;;5050723;27;20260;-68
2021/04/03 06:34:54;;;;;;;27.90;10.70;;;13.20;99.90;;;;;;5045026;27;20275;-69
2021/04/03 06:37:34;;;;;;;24.27;11.83;;;13.20;99.90;;;;;;5031776;27;20599;-70
2021/04/03 06:40:10;;;;;;;27.13;11.67;;;13.30;99.90;;;;;;5024000;27;20412;-68
2021/04/03 06:42:44;;;;;;;19.83;12.03;;;13.30;99.90;;;;;;5041586;27;20575;-70
2021/04/03 06:45:28;;;;;;;22.93;10.80;;;13.30;99.90;;;;;;5052163;27;20228;-69
2021/04/03 06:48:03;;;;;;;20.17;11.23;;;13.50;99.90;;;;;;5026862;27;20210;-70
2021/04/03 06:50:40;;;;;;;17.67;10.87;;;13.50;99.90;;;;;;5038558;27;20191;-69
2021/04/03 06:53:10;;;;;;;19.37;11.07;;;13.50;99.90;;;;;;5023827;28;20214;-69
2021/04/03 06:55:38;;;;;;;17.50;10.33;;;13.50;99.90;;;;;;5029404;27;20192;-68
2021/04/03 06:58:06;;;;;;;15.40;10.87;;;13.50;99.90;;;;;;5062469;28;20192;-69
2021/04/03 07:00:35;;;;;;;19.37;9.00;;;13.50;99.90;;;;;;5034212;28;20223;-70
2021/04/03 07:03:23;;;;;;;21.77;10.77;;;13.60;99.90;;;;;;5039516;28;20181;-68
2021/04/03 07:05:49;;;;;;;20.30;9.73;;;13.60;99.90;;;;;;5039757;27;20279;-70
2021/04/03 07:08:18;;;;;;;18.57;9.20;;;13.70;99.90;;;;;;5041631;28;20206;-69
2021/04/03 07:10:48;;;;;;;16.53;8.90;;;13.70;99.90;;;;;;5049098;28;20200;-70
2021/04/03 07:13:15;;;;;;;18.90;9.70;;;13.80;99.90;;;;;;5025219;28;20189;-70
2021/04/03 07:15:44;;;;;;;16.23;9.03;;;13.90;99.90;;;;;;5034330;28;20200;-70
2021/04/03 07:18:11;;;;;;;16.23;9.00;;;13.90;99.90;;;;;;5033009;28;20195;-70
2021/04/03 07:20:38;;;;;;;18.80;9.07;;;14.00;99.90;;;;;;5033562;28;20241;-70
2021/04/03 07:23:11;;;;;;;16.10;8.30;;;14.00;99.90;;;;;;5044589;28;20207;-70
2021/04/03 07:25:44;;;;;;;19.40;8.33;;;14.10;99.90;;;;;;5036144;28;20211;-70
2021/04/03 07:28:11;;;;;;;12.17;9.00;;;14.00;99.90;;;;;;5108742;28;20324;-71
2021/04/03 07:30:40;;;;;;;17.57;9.47;;;13.90;99.90;;;;;;5033672;27;20196;-71
2021/04/03 07:33:16;;;;;;;21.13;8.70;;;13.90;99.90;;;;;;5032217;28;20292;-69
2021/04/03 07:35:58;;;;;;;21.00;8.77;;;13.80;99.90;;;;;;5028608;27;20188;-69
2021/04/03 07:38:26;;;;;;;20.97;9.17;;;13.90;99.90;;;;;;5043772;27;20270;-70
2021/04/03 07:40:54;;;;;;;16.90;8.53;;;13.90;99.90;;;;;;5039159;27;20203;-70
2021/04/03 07:43:35;;;;;;;16.83;9.10;;;13.90;99.90;;;;;;5025263;28;20199;-70
2021/04/03 07:46:09;;;;;;;19.23;9.67;;;13.90;99.90;;;;;;5108942;27;20199;-71
2021/04/03 07:48:38;;;;;;;12.43;8.87;;;13.90;99.90;;;;;;5057617;27;20201;-71
2021/04/03 07:51:21;;;;;;;18.40;8.87;;;13.80;99.90;;;;;;5054339;27;20207;-71
2021/04/03 07:53:49;;;;;;;18.80;8.93;;;13.90;99.90;;;;;;5044249;27;20202;-71
2021/04/03 07:56:20;;;;;;;20.07;9.37;;;14.00;99.90;;;;;;5049695;27;20275;-70
2021/04/03 07:58:58;;;;;;;14.30;8.90;;;13.90;99.90;;;;;;5052819;27;20196;-70
2021/04/03 08:01:26;;;;;;;17.40;9.43;;;13.90;99.90;;;;;;5043145;27;20187;-70
2021/04/03 08:04:05;;;;;;;17.20;9.77;;;13.90;99.90;;;;;;5052695;27;20195;-68
2021/04/03 08:06:41;;;;;;;22.73;9.93;;;13.90;99.90;;;;;;5044142;27;20191;-68
2021/04/03 08:09:17;;;;;;;19.43;9.03;;;14.00;99.90;;;;;;5036873;27;20188;-69
2021/04/03 08:11:46;;;;;;;18.47;8.70;;;14.10;99.90;;;;;;5049486;27;20312;-70
2021/04/03 08:14:15;;;;;;;15.47;8.97;;;14.20;99.90;;;;;;5058234;27;20271;-68
2021/04/03 08:16:44;;;;;;;18.60;8.40;;;14.30;99.90;;;;;;5038879;27;20195;-68
2021/04/03 08:19:11;;;;;;;15.30;9.10;;;14.50;99.90;;;;;;5048336;27;20216;-69
2021/04/03 08:21:43;;;;;;;14.87;8.63;;;14.70;99.90;;;;;;5045701;27;20548;-70
2021/04/03 08:24:11;;;;;;;12.97;7.83;;;14.70;99.90;;;;;;5025313;27;20199;-70
2021/04/03 08:26:41;;;;;;;21.13;8.53;;;14.80;99.90;;;;;;5031836;27;20284;-69
2021/04/03 08:29:26;;;;;;;19.77;8.50;;;14.80;99.90;;;;;;5030999;27;20250;-68
2021/04/03 08:31:55;;;;;;;15.30;7.50;;;15.00;99.90;;;;;;5010464;28;20291;-68
2021/04/03 08:34:23;;;;;;;14.40;7.17;;;15.10;99.90;;;;;;5019121;27;20199;-68
2021/04/03 08:36:51;;;;;;;18.37;7.23;;;15.20;99.90;;;;;;5028614;27;20557;-68
2021/04/03 08:39:22;;;;;;;12.07;6.90;;;15.30;99.90;;;;;;5033530;27;20637;-68
2021/04/03 08:41:54;;;;;;;16.10;7.07;;;15.40;99.90;;;;;;5047334;27;20203;-68
2021/04/03 08:44:28;;;;;;;13.40;6.60;;;15.50;99.90;;;;;;5035868;27;20759;-69
2021/04/03 08:47:05;;;;;;;18.20;7.57;;;15.60;99.90;;;;;;5020498;27;20859;-68
2021/04/03 08:49:37;;;;;;;11.43;6.67;;;15.70;99.90;;;;;;5026914;27;20687;-69
2021/04/03 08:52:05;;;;;;;20.67;8.00;;;15.80;99.90;;;;;;5020259;28;20598;-68
2021/04/03 08:54:43;;;;;;;16.13;7.30;;;15.80;99.90;;;;;;5023981;27;20188;-68
2021/04/03 08:57:29;;;;;;;16.63;7.13;;;15.80;99.90;;;;;;5024716;28;20199;-67
2021/04/03 09:00:00;;;;;;;13.70;7.33;;;15.60;99.90;;;;;;5031205;28;20268;-68
2021/04/03 09:02:28;;;;;;;13.83;8.13;;;15.50;99.90;;;;;;5015021;28;20227;-68
2021/04/03 09:04:55;;;;;;;18.07;7.60;;;15.40;99.90;;;;;;5009895;28;20189;-69
2021/04/03 09:07:35;;;;;;;13.90;7.10;;;15.70;99.90;;;;;;5111257;27;20195;-69
2021/04/03 09:10:14;;;;;;;13.00;6.30;;;16.00;99.90;;;;;;5031430;27;20188;-68
2021/04/03 09:12:42;;;;;;;11.30;6.90;;;16.00;99.90;;;;;;5021054;28;20336;-68
2021/04/03 09:15:11;;;;;;;16.97;7.83;;;15.80;99.90;;;;;;5020998;28;20196;-68
2021/04/03 09:17:55;;;;;;;14.87;6.60;;;15.70;99.90;;;;;;5020685;28;20196;-68
2021/04/03 09:20:31;;;;;;;13.90;7.33;;;15.70;99.90;;;;;;5020014;28;20184;-69
2021/04/03 09:23:06;;;;;;;13.27;7.37;;;15.80;99.90;;;;;;5019879;28;20824;-69
2021/04/03 09:25:33;;;;;;;22.50;7.20;;;15.70;99.90;;;;;;5024658;28;20788;-68
2021/04/03 09:28:06;;;;;;;13.80;7.00;;;15.70;99.90;;;;;;5021567;28;20193;-68
2021/04/03 09:30:45;;;;;;;19.97;7.07;;;15.80;99.90;;;;;;5046621;27;20193;-68
2021/04/03 09:33:21;;;;;;;12.90;6.90;;;16.00;99.90;;;;;;5035437;27;20274;-69
2021/04/03 09:35:48;;;;;;;14.03;6.70;;;16.20;99.90;;;;;;5016923;27;20188;-66
2021/04/03 09:38:17;;;;;;;14.60;6.40;;;16.30;99.90;;;;;;5029577;27;20711;-70
2021/04/03 09:40:46;;;;;;;14.37;6.80;;;16.50;99.90;;;;;;5038074;27;20262;-67
2021/04/03 09:43:14;;;;;;;13.83;6.17;;;16.50;99.90;;;;;;5040502;27;20193;-69
2021/04/03 09:45:41;;;;;;;12.13;5.93;;;16.50;99.90;;;;;;5044654;27;20192;-68
2021/04/03 09:48:11;;;;;;;15.90;6.63;;;16.50;99.90;;;;;;5048284;27;20740;-68
2021/04/03 09:50:39;;;;;;;14.67;6.10;;;16.30;99.90;;;;;;5034509;27;20358;-68
2021/04/03 09:53:09;;;;;;;13.83;6.33;;;16.30;99.90;;;;;;5039318;27;20208;-68
2021/04/03 09:55:36;;;;;;;15.57;6.97;;;16.40;99.90;;;;;;5052389;27;20191;-68
2021/04/03 09:58:03;;;;;;;17.30;7.30;;;16.60;99.90;;;;;;5048351;27;20211;-69
2021/04/03 10:00:29;;;;;;;17.40;6.53;;;16.30;99.90;;;;;;5037670;27;20188;-69
2021/04/03 10:02:56;;;;;;;18.77;7.30;;;16.00;99.90;;;;;;5027232;27;20208;-69
2021/04/03 10:05:22;;;;;;;13.67;5.70;;;16.20;99.90;;;;;;5019526;27;20215;-69
2021/04/03 10:07:49;;;;;;;13.33;6.20;;;16.80;99.90;;;;;;5016634;27;20200;-68
2021/04/03 10:10:15;;;;;;;12.00;5.80;;;16.90;99.90;;;;;;5023764;27;20196;-69
2021/04/03 10:12:42;;;;;;;11.17;5.53;;;17.20;99.90;;;;;;5033030;27;20227;-69
2021/04/03 10:15:11;;;;;;;13.27;6.30;;;;;;;;;;5031653;27;20214;-68
2021/04/03 10:17:40;;;;;;;14.83;6.00;;;;;;;;;;5037057;27;20200;-69
2021/04/03 10:20:10;;;;;;;17.57;4.90;;;;;;;;;;5038195;27;20227;-68
2021/04/03 10:22:40;;;;;;;15.63;5.67;;;;;;;;;;5020678;27;20191;-67
2021/04/03 10:25:10;;;;;;;10.13;5.10;;;;;;;;;;5023320;27;20190;-69
2021/04/03 10:27:40;;;;;;;11.23;5.73;;;;;;;;;;5045312;27;20287;-68
2021/04/03 10:30:11;;;;;;;13.57;5.43;;;;;;;;;;5039492;27;20323;-68
2021/04/03 10:32:41;;;;;;;16.23;5.97;;;;;;;;;;5057224;27;20218;-68
2021/04/03 10:35:08;;;;;;;14.50;6.63;;;16.80;99.90;;;;;;5047695;27;20549;-68
2021/04/03 10:37:38;;;;;;;14.93;5.23;;;;;;;;;;5033867;27;20196;-68
2021/04/03 10:40:09;;;;;;;10.67;5.37;;;;;;;;;;5020346;28;20216;-68
2021/04/03 10:42:38;;;;;;;8.63;5.80;;;;;;;;;;5052035;27;20189;-68
2021/04/03 10:45:09;;;;;;;11.97;5.43;;;;;;;;;;5043662;27;20250;-69
2021/04/03 10:47:37;;;;;;;16.47;6.33;;;;;;;;;;5028318;27;20189;-70
2021/04/03 10:50:04;;;;;;;16.33;6.20;;;;;;;;;;5023911;28;20664;-69
2021/04/03 10:52:36;;;;;;;10.20;5.60;;;;;;;;;;5105623;27;20201;-66
2021/04/03 10:55:07;;;;;;;11.27;6.13;;;;;;;;;;5068281;27;20196;-67
2021/04/03 10:57:36;;;;;;;9.77;5.70;;;;;;;;;;5104667;27;20191;-67
2021/04/03 11:00:08;;;;;;;9.63;6.03;;;;;;;;;;5028819;28;20656;-69
2021/04/03 11:02:37;;;;;;;16.40;5.37;;;;;;;;;;5045928;28;20211;-69
2021/04/03 11:05:08;;;;;;;12.63;5.43;;;;;;;;;;5105787;27;20195;-67
2021/04/03 11:07:37;;;;;;;14.20;5.57;;;;;;;;;;5023936;28;21782;-67
2021/04/03 11:10:07;;;;;;;17.70;5.00;;;;;;;;;;5040347;28;20195;-70
2021/04/03 11:12:36;;;;;;;17.47;5.90;;;;;;;;;;5057629;28;20212;-69
2021/04/03 11:15:06;;;;;;;9.10;5.17;;;;;;;;;;5030240;28;20192;-69
2021/04/03 11:17:36;;;;;;;15.03;5.33;;;;;;;;;;5032620;28;20619;-68
2021/04/03 11:20:09;;;;;;;9.50;5.30;;;;;;;;;;5028719;28;20312;-66
2021/04/03 11:22:39;;;;;;;13.47;5.27;;;;;;;;;;5035043;28;20188;-67
2021/04/03 11:25:09;;;;;;;8.50;5.03;;;;;;;;;;5048441;28;20192;-66
2021/04/03 11:27:39;;;;;;;10.97;5.57;;;;;;;;;;5034602;28;20196;-67
2021/04/03 11:30:13;;;;;;;10.00;5.53;;;;;;;;;;5036284;28;20191;-67
2021/04/03 11:32:47;;;;;;;11.17;6.03;;;;;;;;;;5033505;28;20249;-67
2021/04/03 11:35:19;;;;;;;11.67;5.20;;;;;;;;;;5038628;28;20260;-66
2021/04/03 11:37:49;;;;;;;13.60;5.33;;;;;;;;;;5049668;28;20518;-67
2021/04/03 11:40:20;;;;;;;9.60;4.40;;;;;;;;;;5033918;28;20699;-66
2021/04/03 11:42:53;;;;;;;7.53;4.83;;;;;;;;;;5042295;28;20185;-67
2021/04/03 11:45:23;;;;;;;15.33;5.60;;;;;;;;;;5061723;28;20181;-67
2021/04/03 11:47:53;;;;;;;14.00;5.33;;;;;;;;;;5053022;28;20216;-68
2021/04/03 11:50:25;;;;;;;10.17;4.10;;;;;;;;;;5047123;28;20200;-67
2021/04/03 11:52:58;;;;;;;8.10;4.27;;;;;;;;;;5023006;28;20188;-66
2021/04/03 11:55:27;;;;;;;10.37;4.07;;;;;;;;;;5049081;28;20188;-67
2021/04/03 11:57:57;;;;;;;13.57;4.70;;;;;;;;;;5061094;28;20185;-67
2021/04/03 12:00:27;;;;;;;8.67;4.40;;;;;;;;;;5050927;28;20193;-67
2021/04/03 12:02:56;;;;;;;7.63;4.00;;;;;;;;;;5039407;28;20193;-70
2021/04/03 12:05:25;;;;;;;7.90;4.23;;;;;;;;;;5043426;28;20231;-68
2021/04/03 12:07:56;;;;;;;12.87;4.83;;;;;;;;;;5051114;27;20224;-69
2021/04/03 12:10:25;;;;;;;12.57;4.57;;;;;;;;;;5034723;28;20184;-69
2021/04/03 12:12:54;;;;;;;13.83;4.33;;;;;;;;;;5024333;28;20184;-70
2021/04/03 12:15:25;;;;;;;7.83;4.13;;;;;;;;;;5041846;27;20216;-67
2021/04/03 12:17:54;;;;;;;10.50;4.40;;;;;;;;;;5047586;27;20241;-67
2021/04/03 12:20:24;;;;;;;8.37;4.40;;;;;;;;;;5048707;27;20203;-68
2021/04/03 12:22:53;;;;;;;8.87;3.97;;;;;;;;;;5059355;27;20188;-68
2021/04/03 12:25:22;;;;;;;9.33;4.20;;;;;;;;;;5041376;27;20231;-68
2021/04/03 12:27:51;;;;;;;9.67;3.97;;;;;;;;;;5065837;27;20680;-67
2021/04/03 12:30:20;;;;;;;10.77;4.00;;;;;;;;;;5046588;27;20974;-67
2021/04/03 12:32:50;;;;;;;8.03;4.10;;;;;;;;;;5048569;27;20668;-69
2021/04/03 12:35:19;;;;;;;6.37;3.17;;;;;;;;;;5044356;27;20758;-69
2021/04/03 12:37:49;;;;;;;8.97;3.47;;;;;;;;;;5055020;27;20272;-67
2021/04/03 12:40:18;;;;;;;7.43;3.20;;;;;;;;;;5038954;27;20220;-67
2021/04/03 12:42:47;;;;;;;9.20;3.70;;;;;;;;;;5049072;27;20673;-68
2021/04/03 12:45:16;;;;;;;11.80;4.40;;;;;;;;;;5051685;27;20192;-69
2021/04/03 12:47:46;;;;;;;6.60;3.73;;;;;;;;;;5053314;27;20188;-70
2021/04/03 12:50:16;;;;;;;9.67;3.93;;;;;;;;;;5061924;27;20192;-69
2021/04/03 12:52:45;;;;;;;10.67;4.40;;;;;;;;;;5028945;27;20277;-69
2021/04/03 12:55:14;;;;;;;6.77;4.03;;;;;;;;;;5034242;27;20216;-69
2021/04/03 12:57:43;;;;;;;11.27;4.20;;;;;;;;;;5063157;27;20206;-69
2021/04/03 13:00:11;;;;;;;10.67;4.50;;;;;;;;;;5046685;27;20188;-70
2021/04/03 13:02:41;;;;;;;7.77;3.40;;;;;;;;;;5048506;27;20193;-69
2021/04/03 13:05:10;;;;;;;7.30;4.30;;;;;;;;;;5048550;27;20191;-67
2021/04/03 13:07:39;;;;;;;10.40;4.47;;;;;;;;;;5035327;27;20218;-69
2021/04/03 13:10:09;;;;;;;12.20;4.53;;;;;;;;;;5023517;27;20192;-69
2021/04/03 13:12:38;;;;;;;5.53;3.60;;;;;;;;;;5033782;27;20253;-70
2021/04/03 13:15:08;;;;;;;8.30;3.57;;;;;;;;;;5050674;27;20208;-66